sensor_id;sensor_type;location;lat;lon;timestamp;temperature;humidity
48734;DHT22;34530;52.084;5.146;2022-10-30T00:00:14;20.70;78.00
48734;DHT22;34530;52.084;5.146;2022-10-30T00:02:40;20.60;78.00
48734;DHT22;34530;52.084;5.146;2022-10-30T00:05:05;20.60;77.90
48734;DHT22;34530;52.084;5.146;2022-10-30T00:07:32;20.70;78.00
48734;DHT22;34530;52.084;5.146;2022-10-30T00:09:58;20.70;78.00
48734;DHT22;34530;52.084;5.146;2022-10-30T00:12:23;20.70;78.00
48734;DHT22;34530;52.084;5.146;2022-10-30T00:14:49;20.60;78.60
48734;DHT22;34530;52.084;5.146;2022-10-30T00:17:14;20.60;77.90
48734;DHT22;34530;52.084;5.146;2022-10-30T00:19:40;20.60;77.90
48734;DHT22;34530;52.084;5.146;2022-10-30T00:22:06;20.60;77.80
48734;DHT22;34530;52.084;5.146;2022-10-30T00:24:31;20.60;77.80
48734;DHT22;34530;52.084;5.146;2022-10-30T00:26:57;20.60;77.80
48734;DHT22;34530;52.084;5.146;2022-10-30T00:29:22;20.60;77.80
48734;DHT22;34530;52.084;5.146;2022-10-30T00:31:49;20.60;77.80
48734;DHT22;34530;52.084;5.146;2022-10-30T00:34:15;20.60;77.80
48734;DHT22;34530;52.084;5.146;2022-10-30T00:36:40;20.60;77.80
48734;DHT22;34530;52.084;5.146;2022-10-30T00:39:06;20.60;77.70
48734;DHT22;34530;52.084;5.146;2022-10-30T00:41:32;20.60;77.80
48734;DHT22;34530;52.084;5.146;2022-10-30T00:43:57;20.60;77.70
48734;DHT22;34530;52.084;5.146;2022-10-30T00:46:36;20.60;77.80
48734;DHT22;34530;52.084;5.146;2022-10-30T00:49:11;20.60;77.70
48734;DHT22;34530;52.084;5.146;2022-10-30T00:51:39;20.60;77.70
48734;DHT22;34530;52.084;5.146;2022-10-30T00:54:07;20.60;77.70
48734;DHT22;34530;52.084;5.146;2022-10-30T00:56:33;20.60;77.70
48734;DHT22;34530;52.084;5.146;2022-10-30T00:59:06;20.60;77.80
48734;DHT22;34530;52.084;5.146;2022-10-30T01:01:35;20.60;77.70
48734;DHT22;34530;52.084;5.146;2022-10-30T01:04:03;20.60;77.70
48734;DHT22;34530;52.084;5.146;2022-10-30T01:06:31;20.60;77.70
48734;DHT22;34530;52.084;5.146;2022-10-30T01:08:58;20.60;77.70
48734;DHT22;34530;52.084;5.146;2022-10-30T01:11:24;20.60;77.70
48734;DHT22;34530;52.084;5.146;2022-10-30T01:13:51;20.60;77.70
48734;DHT22;34530;52.084;5.146;2022-10-30T01:16:43;20.60;77.70
48734;DHT22;34530;52.084;5.146;2022-10-30T01:19:25;20.60;77.60
48734;DHT22;34530;52.084;5.146;2022-10-30T01:25:05;20.60;77.80
48734;DHT22;34530;52.084;5.146;2022-10-30T01:27:59;20.50;77.60
48734;DHT22;34530;52.084;5.146;2022-10-30T01:36:49;20.50;77.60
48734;DHT22;34530;52.084;5.146;2022-10-30T01:39:25;20.50;77.60
48734;DHT22;34530;52.084;5.146;2022-10-30T01:41:51;20.50;77.70
48734;DHT22;34530;52.084;5.146;2022-10-30T01:44:27;20.50;77.80
48734;DHT22;34530;52.084;5.146;2022-10-30T01:46:59;20.50;77.70
48734;DHT22;34530;52.084;5.146;2022-10-30T01:49:43;20.50;77.70
48734;DHT22;34530;52.084;5.146;2022-10-30T01:58:01;20.50;77.70
48734;DHT22;34530;52.084;5.146;2022-10-30T02:00:30;20.50;77.70
48734;DHT22;34530;52.084;5.146;2022-10-30T02:02:56;20.50;77.70
48734;DHT22;34530;52.084;5.146;2022-10-30T02:08:00;20.50;77.60
48734;DHT22;34530;52.084;5.146;2022-10-30T02:10:26;20.50;77.70
48734;DHT22;34530;52.084;5.146;2022-10-30T02:12:52;20.50;77.70
48734;DHT22;34530;52.084;5.146;2022-10-30T02:15:18;20.50;77.70
48734;DHT22;34530;52.084;5.146;2022-10-30T02:17:44;20.50;77.70
48734;DHT22;34530;52.084;5.146;2022-10-30T02:20:17;20.50;77.70
48734;DHT22;34530;52.084;5.146;2022-10-30T02:22:43;20.50;77.60
48734;DHT22;34530;52.084;5.146;2022-10-30T02:25:09;20.50;77.70
48734;DHT22;34530;52.084;5.146;2022-10-30T02:27:35;20.50;77.70
48734;DHT22;34530;52.084;5.146;2022-10-30T02:30:00;20.50;77.70
48734;DHT22;34530;52.084;5.146;2022-10-30T02:32:26;20.50;77.70
48734;DHT22;34530;52.084;5.146;2022-10-30T02:34:52;20.50;77.70
48734;DHT22;34530;52.084;5.146;2022-10-30T02:37:17;20.50;77.70
48734;DHT22;34530;52.084;5.146;2022-10-30T02:39:43;20.50;77.60
48734;DHT22;34530;52.084;5.146;2022-10-30T02:42:08;20.50;77.70
48734;DHT22;34530;52.084;5.146;2022-10-30T02:44:34;20.50;77.70
48734;DHT22;34530;52.084;5.146;2022-10-30T02:46:59;20.50;77.60
48734;DHT22;34530;52.084;5.146;2022-10-30T02:49:25;20.50;77.60
48734;DHT22;34530;52.084;5.146;2022-10-30T02:51:51;20.40;78.30
48734;DHT22;34530;52.084;5.146;2022-10-30T02:54:16;20.40;77.60
48734;DHT22;34530;52.084;5.146;2022-10-30T02:56:42;20.40;77.60
48734;DHT22;34530;52.084;5.146;2022-10-30T02:59:08;20.40;77.60
48734;DHT22;34530;52.084;5.146;2022-10-30T03:01:33;20.40;77.60
48734;DHT22;34530;52.084;5.146;2022-10-30T03:03:59;20.50;77.60
48734;DHT22;34530;52.084;5.146;2022-10-30T03:06:24;20.40;77.60
48734;DHT22;34530;52.084;5.146;2022-10-30T03:08:50;20.40;77.60
48734;DHT22;34530;52.084;5.146;2022-10-30T03:11:18;20.40;77.60
48734;DHT22;34530;52.084;5.146;2022-10-30T03:13:45;20.40;77.60
48734;DHT22;34530;52.084;5.146;2022-10-30T03:16:17;20.40;77.60
48734;DHT22;34530;52.084;5.146;2022-10-30T03:18:43;20.40;78.30
48734;DHT22;34530;52.084;5.146;2022-10-30T03:21:11;20.40;77.60
48734;DHT22;34530;52.084;5.146;2022-10-30T03:23:38;20.40;77.60
48734;DHT22;34530;52.084;5.146;2022-10-30T03:26:04;20.40;77.60
48734;DHT22;34530;52.084;5.146;2022-10-30T03:28:30;20.40;77.60
48734;DHT22;34530;52.084;5.146;2022-10-30T03:31:07;20.40;77.50
48734;DHT22;34530;52.084;5.146;2022-10-30T03:33:34;20.40;77.50
48734;DHT22;34530;52.084;5.146;2022-10-30T03:36:00;20.40;77.60
48734;DHT22;34530;52.084;5.146;2022-10-30T03:38:26;20.40;77.60
48734;DHT22;34530;52.084;5.146;2022-10-30T03:40:52;20.40;77.50
48734;DHT22;34530;52.084;5.146;2022-10-30T03:43:18;20.40;77.60
48734;DHT22;34530;52.084;5.146;2022-10-30T03:45:51;20.40;77.50
48734;DHT22;34530;52.084;5.146;2022-10-30T03:48:19;20.40;77.50
48734;DHT22;34530;52.084;5.146;2022-10-30T03:50:45;20.40;77.50
48734;DHT22;34530;52.084;5.146;2022-10-30T03:53:11;20.40;77.60
48734;DHT22;34530;52.084;5.146;2022-10-30T03:55:36;20.40;77.50
48734;DHT22;34530;52.084;5.146;2022-10-30T03:58:02;20.40;77.50
48734;DHT22;34530;52.084;5.146;2022-10-30T04:00:28;20.30;77.40
48734;DHT22;34530;52.084;5.146;2022-10-30T04:02:54;20.30;78.20
48734;DHT22;34530;52.084;5.146;2022-10-30T04:05:22;20.40;77.50
48734;DHT22;34530;52.084;5.146;2022-10-30T04:07:48;20.30;77.40
48734;DHT22;34530;52.084;5.146;2022-10-30T04:10:14;20.30;77.40
48734;DHT22;34530;52.084;5.146;2022-10-30T04:12:40;20.30;77.40
48734;DHT22;34530;52.084;5.146;2022-10-30T04:15:07;20.30;77.40
48734;DHT22;34530;52.084;5.146;2022-10-30T04:17:33;20.30;77.40
48734;DHT22;34530;52.084;5.146;2022-10-30T04:19:58;20.30;77.30
48734;DHT22;34530;52.084;5.146;2022-10-30T04:22:25;20.30;77.30
48734;DHT22;34530;52.084;5.146;2022-10-30T04:24:50;20.30;77.30
48734;DHT22;34530;52.084;5.146;2022-10-30T04:27:18;20.30;77.30
48734;DHT22;34530;52.084;5.146;2022-10-30T04:29:45;20.30;77.30
48734;DHT22;34530;52.084;5.146;2022-10-30T04:32:11;20.30;77.30
48734;DHT22;34530;52.084;5.146;2022-10-30T04:34:37;20.30;77.30
48734;DHT22;34530;52.084;5.146;2022-10-30T04:37:04;20.30;77.30
48734;DHT22;34530;52.084;5.146;2022-10-30T04:39:31;20.30;77.30
48734;DHT22;34530;52.084;5.146;2022-10-30T04:41:56;20.30;77.30
48734;DHT22;34530;52.084;5.146;2022-10-30T04:44:22;20.30;77.30
48734;DHT22;34530;52.084;5.146;2022-10-30T04:46:47;20.30;77.30
48734;DHT22;34530;52.084;5.146;2022-10-30T04:49:13;20.30;77.30
48734;DHT22;34530;52.084;5.146;2022-10-30T04:51:39;20.20;77.20
48734;DHT22;34530;52.084;5.146;2022-10-30T04:54:04;20.20;77.20
48734;DHT22;34530;52.084;5.146;2022-10-30T04:56:30;20.20;77.20
48734;DHT22;34530;52.084;5.146;2022-10-30T04:58:57;20.30;77.20
48734;DHT22;34530;52.084;5.146;2022-10-30T05:01:23;20.20;77.20
48734;DHT22;34530;52.084;5.146;2022-10-30T05:03:48;20.20;77.20
48734;DHT22;34530;52.084;5.146;2022-10-30T05:06:22;20.20;77.20
48734;DHT22;34530;52.084;5.146;2022-10-30T05:08:49;20.20;77.10
48734;DHT22;34530;52.084;5.146;2022-10-30T05:11:16;20.20;77.20
48734;DHT22;34530;52.084;5.146;2022-10-30T05:13:42;20.20;77.20
48734;DHT22;34530;52.084;5.146;2022-10-30T05:16:08;20.20;77.20
48734;DHT22;34530;52.084;5.146;2022-10-30T05:18:33;20.20;77.20
48734;DHT22;34530;52.084;5.146;2022-10-30T05:20:59;20.20;77.20
48734;DHT22;34530;52.084;5.146;2022-10-30T05:23:24;20.20;77.20
48734;DHT22;34530;52.084;5.146;2022-10-30T05:25:50;20.20;77.10
48734;DHT22;34530;52.084;5.146;2022-10-30T05:28:16;20.20;77.10
48734;DHT22;34530;52.084;5.146;2022-10-30T05:30:41;20.20;77.10
48734;DHT22;34530;52.084;5.146;2022-10-30T05:33:09;20.20;77.10
48734;DHT22;34530;52.084;5.146;2022-10-30T05:35:35;20.10;77.10
48734;DHT22;34530;52.084;5.146;2022-10-30T05:38:03;20.10;77.10
48734;DHT22;34530;52.084;5.146;2022-10-30T05:40:30;20.20;77.10
48734;DHT22;34530;52.084;5.146;2022-10-30T05:42:56;20.10;77.10
48734;DHT22;34530;52.084;5.146;2022-10-30T05:45:21;20.10;77.10
48734;DHT22;34530;52.084;5.146;2022-10-30T05:50:19;20.10;77.00
48734;DHT22;34530;52.084;5.146;2022-10-30T05:52:45;20.10;77.10
48734;DHT22;34530;52.084;5.146;2022-10-30T05:55:10;20.10;77.00
48734;DHT22;34530;52.084;5.146;2022-10-30T05:57:36;20.10;77.00
48734;DHT22;34530;52.084;5.146;2022-10-30T06:00:02;20.10;77.00
48734;DHT22;34530;52.084;5.146;2022-10-30T06:02:28;20.10;77.00
48734;DHT22;34530;52.084;5.146;2022-10-30T06:04:53;20.10;77.00
48734;DHT22;34530;52.084;5.146;2022-10-30T06:07:19;20.10;77.00
48734;DHT22;34530;52.084;5.146;2022-10-30T06:09:45;20.10;77.00
48734;DHT22;34530;52.084;5.146;2022-10-30T06:12:10;20.10;77.00
48734;DHT22;34530;52.084;5.146;2022-10-30T06:14:36;20.10;77.00
48734;DHT22;34530;52.084;5.146;2022-10-30T06:17:01;20.10;77.00
48734;DHT22;34530;52.084;5.146;2022-10-30T06:19:27;20.00;76.90
48734;DHT22;34530;52.084;5.146;2022-10-30T06:21:52;20.00;76.90
48734;DHT22;34530;52.084;5.146;2022-10-30T06:24:19;20.10;76.90
48734;DHT22;34530;52.084;5.146;2022-10-30T06:26:44;20.10;76.90
48734;DHT22;34530;52.084;5.146;2022-10-30T06:29:10;20.00;76.90
48734;DHT22;34530;52.084;5.146;2022-10-30T06:31:36;20.00;76.80
48734;DHT22;34530;52.084;5.146;2022-10-30T06:34:02;20.00;76.90
48734;DHT22;34530;52.084;5.146;2022-10-30T06:36:27;20.00;76.80
48734;DHT22;34530;52.084;5.146;2022-10-30T06:38:53;20.00;76.80
48734;DHT22;34530;52.084;5.146;2022-10-30T06:41:18;20.10;76.90
48734;DHT22;34530;52.084;5.146;2022-10-30T06:43:44;20.00;76.80
48734;DHT22;34530;52.084;5.146;2022-10-30T06:46:10;20.00;76.80
48734;DHT22;34530;52.084;5.146;2022-10-30T06:48:35;20.00;76.80
48734;DHT22;34530;52.084;5.146;2022-10-30T06:51:01;20.00;76.80
48734;DHT22;34530;52.084;5.146;2022-10-30T06:53:27;20.00;76.80
48734;DHT22;34530;52.084;5.146;2022-10-30T06:55:57;20.00;76.80
48734;DHT22;34530;52.084;5.146;2022-10-30T06:58:23;20.00;76.80
48734;DHT22;34530;52.084;5.146;2022-10-30T07:00:49;20.00;76.80
48734;DHT22;34530;52.084;5.146;2022-10-30T07:03:15;20.00;76.80
48734;DHT22;34530;52.084;5.146;2022-10-30T07:05:40;20.00;76.80
48734;DHT22;34530;52.084;5.146;2022-10-30T07:08:06;20.00;76.80
48734;DHT22;34530;52.084;5.146;2022-10-30T07:10:32;20.00;76.80
48734;DHT22;34530;52.084;5.146;2022-10-30T07:12:57;20.00;76.70
48734;DHT22;34530;52.084;5.146;2022-10-30T07:15:24;20.00;76.80
48734;DHT22;34530;52.084;5.146;2022-10-30T07:17:57;19.90;76.70
48734;DHT22;34530;52.084;5.146;2022-10-30T07:20:24;20.00;76.70
48734;DHT22;34530;52.084;5.146;2022-10-30T07:22:51;19.90;76.60
48734;DHT22;34530;52.084;5.146;2022-10-30T07:25:17;20.00;76.70
48734;DHT22;34530;52.084;5.146;2022-10-30T07:27:44;19.90;76.60
48734;DHT22;34530;52.084;5.146;2022-10-30T07:30:11;19.90;77.40
48734;DHT22;34530;52.084;5.146;2022-10-30T07:32:37;19.90;76.60
48734;DHT22;34530;52.084;5.146;2022-10-30T07:35:03;19.90;76.60
48734;DHT22;34530;52.084;5.146;2022-10-30T07:37:29;19.90;76.60
48734;DHT22;34530;52.084;5.146;2022-10-30T07:39:54;20.00;76.60
48734;DHT22;34530;52.084;5.146;2022-10-30T07:42:20;19.90;76.60
48734;DHT22;34530;52.084;5.146;2022-10-30T07:44:46;19.90;76.60
48734;DHT22;34530;52.084;5.146;2022-10-30T07:47:11;19.90;76.60
48734;DHT22;34530;52.084;5.146;2022-10-30T07:49:37;19.90;76.60
48734;DHT22;34530;52.084;5.146;2022-10-30T07:52:02;19.90;76.60
48734;DHT22;34530;52.084;5.146;2022-10-30T07:54:28;19.90;76.60
48734;DHT22;34530;52.084;5.146;2022-10-30T07:56:54;19.90;76.60
48734;DHT22;34530;52.084;5.146;2022-10-30T07:59:19;19.90;76.60
48734;DHT22;34530;52.084;5.146;2022-10-30T08:01:45;19.90;76.70
48734;DHT22;34530;52.084;5.146;2022-10-30T08:04:10;19.90;76.70
48734;DHT22;34530;52.084;5.146;2022-10-30T08:06:38;19.90;76.70
48734;DHT22;34530;52.084;5.146;2022-10-30T08:09:04;19.90;76.70
48734;DHT22;34530;52.084;5.146;2022-10-30T08:11:29;19.90;76.70
48734;DHT22;34530;52.084;5.146;2022-10-30T08:13:56;19.90;76.60
48734;DHT22;34530;52.084;5.146;2022-10-30T08:16:21;19.90;76.60
48734;DHT22;34530;52.084;5.146;2022-10-30T08:18:47;19.90;76.60
48734;DHT22;34530;52.084;5.146;2022-10-30T08:21:13;19.90;76.70
48734;DHT22;34530;52.084;5.146;2022-10-30T08:23:38;20.00;76.80
48734;DHT22;34530;52.084;5.146;2022-10-30T08:26:04;19.90;76.70
48734;DHT22;34530;52.084;5.146;2022-10-30T08:28:30;20.00;76.80
48734;DHT22;34530;52.084;5.146;2022-10-30T08:30:57;20.00;77.00
48734;DHT22;34530;52.084;5.146;2022-10-30T08:33:23;20.00;77.00
48734;DHT22;34530;52.084;5.146;2022-10-30T08:35:51;20.00;77.10
48734;DHT22;34530;52.084;5.146;2022-10-30T08:38:17;20.00;77.10
48734;DHT22;34530;52.084;5.146;2022-10-30T08:40:43;20.00;77.10
48734;DHT22;34530;52.084;5.146;2022-10-30T08:43:09;20.00;77.20
48734;DHT22;34530;52.084;5.146;2022-10-30T08:45:35;20.00;77.10
48734;DHT22;34530;52.084;5.146;2022-10-30T08:48:03;20.00;77.10
48734;DHT22;34530;52.084;5.146;2022-10-30T08:50:30;20.00;77.20
48734;DHT22;34530;52.084;5.146;2022-10-30T08:52:58;20.00;77.20
48734;DHT22;34530;52.084;5.146;2022-10-30T08:55:24;20.00;77.20
48734;DHT22;34530;52.084;5.146;2022-10-30T08:57:49;20.00;77.20
48734;DHT22;34530;52.084;5.146;2022-10-30T09:00:15;20.00;77.30
48734;DHT22;34530;52.084;5.146;2022-10-30T09:02:41;20.00;77.20
48734;DHT22;34530;52.084;5.146;2022-10-30T09:05:07;20.00;77.30
48734;DHT22;34530;52.084;5.146;2022-10-30T09:07:34;20.00;77.20
48734;DHT22;34530;52.084;5.146;2022-10-30T09:09:59;20.00;77.20
48734;DHT22;34530;52.084;5.146;2022-10-30T09:12:25;20.00;77.20
48734;DHT22;34530;52.084;5.146;2022-10-30T09:14:51;20.10;77.30
48734;DHT22;34530;52.084;5.146;2022-10-30T09:17:16;20.10;77.40
48734;DHT22;34530;52.084;5.146;2022-10-30T09:19:42;20.10;77.40
48734;DHT22;34530;52.084;5.146;2022-10-30T09:22:07;20.10;77.50
48734;DHT22;34530;52.084;5.146;2022-10-30T09:24:33;20.20;77.50
48734;DHT22;34530;52.084;5.146;2022-10-30T09:26:58;20.20;77.40
48734;DHT22;34530;52.084;5.146;2022-10-30T09:29:24;20.20;77.40
48734;DHT22;34530;52.084;5.146;2022-10-30T09:31:50;20.30;77.40
48734;DHT22;34530;52.084;5.146;2022-10-30T09:34:15;20.30;77.40
48734;DHT22;34530;52.084;5.146;2022-10-30T09:36:42;20.30;77.30
48734;DHT22;34530;52.084;5.146;2022-10-30T09:39:09;20.30;77.30
48734;DHT22;34530;52.084;5.146;2022-10-30T09:42:13;20.30;77.30
48734;DHT22;34530;52.084;5.146;2022-10-30T09:45:09;20.40;77.30
48734;DHT22;34530;52.084;5.146;2022-10-30T09:47:50;20.40;77.30
48734;DHT22;34530;52.084;5.146;2022-10-30T09:50:30;20.40;77.30
48734;DHT22;34530;52.084;5.146;2022-10-30T09:53:22;20.40;77.30
48734;DHT22;34530;52.084;5.146;2022-10-30T10:01:16;20.40;77.10
48734;DHT22;34530;52.084;5.146;2022-10-30T10:06:27;20.50;77.10
48734;DHT22;34530;52.084;5.146;2022-10-30T10:08:58;20.50;77.10
48734;DHT22;34530;52.084;5.146;2022-10-30T10:11:31;20.50;77.00
48734;DHT22;34530;52.084;5.146;2022-10-30T10:14:13;20.50;77.00
48734;DHT22;34530;52.084;5.146;2022-10-30T10:16:40;20.50;77.00
48734;DHT22;34530;52.084;5.146;2022-10-30T10:19:19;20.50;77.00
48734;DHT22;34530;52.084;5.146;2022-10-30T10:21:57;20.60;77.10
48734;DHT22;34530;52.084;5.146;2022-10-30T10:24:32;20.60;77.00
48734;DHT22;34530;52.084;5.146;2022-10-30T10:27:09;20.60;77.00
48734;DHT22;34530;52.084;5.146;2022-10-30T10:35:33;20.70;77.00
48734;DHT22;34530;52.084;5.146;2022-10-30T10:40:59;20.60;76.90
48734;DHT22;34530;52.084;5.146;2022-10-30T10:43:57;20.70;76.90
48734;DHT22;34530;52.084;5.146;2022-10-30T10:49:41;20.70;76.90
48734;DHT22;34530;52.084;5.146;2022-10-30T10:52:22;20.70;76.90
48734;DHT22;34530;52.084;5.146;2022-10-30T10:54:55;20.70;76.90
48734;DHT22;34530;52.084;5.146;2022-10-30T10:57:28;20.70;76.90
48734;DHT22;34530;52.084;5.146;2022-10-30T11:00:01;20.70;76.90
48734;DHT22;34530;52.084;5.146;2022-10-30T11:02:39;20.70;76.90
48734;DHT22;34530;52.084;5.146;2022-10-30T11:05:17;20.70;76.80
48734;DHT22;34530;52.084;5.146;2022-10-30T11:07:47;20.70;76.80
48734;DHT22;34530;52.084;5.146;2022-10-30T11:10:15;20.80;76.80
48734;DHT22;34530;52.084;5.146;2022-10-30T11:12:40;20.80;76.80
48734;DHT22;34530;52.084;5.146;2022-10-30T11:18:01;20.80;76.60
48734;DHT22;34530;52.084;5.146;2022-10-30T11:20:55;20.80;76.70
48734;DHT22;34530;52.084;5.146;2022-10-30T11:23:37;20.80;76.60
48734;DHT22;34530;52.084;5.146;2022-10-30T11:26:37;20.80;76.60
48734;DHT22;34530;52.084;5.146;2022-10-30T11:31:27;20.80;76.50
48734;DHT22;34530;52.084;5.146;2022-10-30T11:34:23;20.90;76.50
48734;DHT22;34530;52.084;5.146;2022-10-30T11:36:50;20.90;76.40
48734;DHT22;34530;52.084;5.146;2022-10-30T11:39:27;20.90;76.40
48734;DHT22;34530;52.084;5.146;2022-10-30T11:42:07;20.90;76.40
48734;DHT22;34530;52.084;5.146;2022-10-30T11:47:09;20.90;77.10
48734;DHT22;34530;52.084;5.146;2022-10-30T11:49:45;20.90;76.40
48734;DHT22;34530;52.084;5.146;2022-10-30T11:52:15;20.90;76.40
48734;DHT22;34530;52.084;5.146;2022-10-30T11:54:49;20.90;76.40
48734;DHT22;34530;52.084;5.146;2022-10-30T11:59:52;20.90;76.30
48734;DHT22;34530;52.084;5.146;2022-10-30T12:02:25;20.90;76.30
48734;DHT22;34530;52.084;5.146;2022-10-30T12:04:53;20.90;76.20
48734;DHT22;34530;52.084;5.146;2022-10-30T12:09:47;20.90;76.20
48734;DHT22;34530;52.084;5.146;2022-10-30T12:12:22;20.90;76.20
48734;DHT22;34530;52.084;5.146;2022-10-30T12:14:49;20.90;76.10
48734;DHT22;34530;52.084;5.146;2022-10-30T12:17:16;20.90;76.10
48734;DHT22;34530;52.084;5.146;2022-10-30T12:19:50;20.90;76.20
48734;DHT22;34530;52.084;5.146;2022-10-30T12:22:44;20.90;76.10
48734;DHT22;34530;52.084;5.146;2022-10-30T12:25:23;20.90;76.00
48734;DHT22;34530;52.084;5.146;2022-10-30T12:27:50;20.90;76.00
48734;DHT22;34530;52.084;5.146;2022-10-30T12:30:22;20.90;76.80
48734;DHT22;34530;52.084;5.146;2022-10-30T12:33:10;20.90;76.00
48734;DHT22;34530;52.084;5.146;2022-10-30T12:38:32;20.90;75.90
48734;DHT22;34530;52.084;5.146;2022-10-30T12:41:21;20.90;75.80
48734;DHT22;34530;52.084;5.146;2022-10-30T12:44:13;20.90;75.90
48734;DHT22;34530;52.084;5.146;2022-10-30T12:46:57;20.90;75.80
48734;DHT22;34530;52.084;5.146;2022-10-30T12:49:40;20.90;75.90
48734;DHT22;34530;52.084;5.146;2022-10-30T12:55:00;20.90;75.90
48734;DHT22;34530;52.084;5.146;2022-10-30T12:57:36;20.90;75.90
48734;DHT22;34530;52.084;5.146;2022-10-30T13:00:14;20.90;75.90
48734;DHT22;34530;52.084;5.146;2022-10-30T13:03:00;20.90;75.90
48734;DHT22;34530;52.084;5.146;2022-10-30T13:05:50;20.90;75.90
48734;DHT22;34530;52.084;5.146;2022-10-30T13:08:21;20.90;76.60
48734;DHT22;34530;52.084;5.146;2022-10-30T13:11:02;20.90;75.90
48734;DHT22;34530;52.084;5.146;2022-10-30T13:13:37;20.90;75.90
48734;DHT22;34530;52.084;5.146;2022-10-30T13:16:10;21.00;75.90
48734;DHT22;34530;52.084;5.146;2022-10-30T13:18:36;21.00;75.90
48734;DHT22;34530;52.084;5.146;2022-10-30T13:26:54;21.00;75.70
48734;DHT22;34530;52.084;5.146;2022-10-30T13:29:24;21.00;75.80
48734;DHT22;34530;52.084;5.146;2022-10-30T13:37:11;21.00;75.70
48734;DHT22;34530;52.084;5.146;2022-10-30T13:39:57;21.00;75.70
48734;DHT22;34530;52.084;5.146;2022-10-30T13:50:38;21.00;75.70
48734;DHT22;34530;52.084;5.146;2022-10-30T13:53:14;21.10;75.70
48734;DHT22;34530;52.084;5.146;2022-10-30T13:55:42;21.00;75.60
48734;DHT22;34530;52.084;5.146;2022-10-30T13:58:22;21.10;75.70
48734;DHT22;34530;52.084;5.146;2022-10-30T14:11:21;21.10;75.50
48734;DHT22;34530;52.084;5.146;2022-10-30T14:14:02;21.10;75.50
48734;DHT22;34530;52.084;5.146;2022-10-30T14:16:38;21.10;75.30
48734;DHT22;34530;52.084;5.146;2022-10-30T14:19:22;21.10;75.30
48734;DHT22;34530;52.084;5.146;2022-10-30T14:21:58;21.10;75.20
48734;DHT22;34530;52.084;5.146;2022-10-30T14:24:33;21.10;75.30
48734;DHT22;34530;52.084;5.146;2022-10-30T14:39:51;21.20;75.10
48734;DHT22;34530;52.084;5.146;2022-10-30T14:45:28;21.20;75.00
48734;DHT22;34530;52.084;5.146;2022-10-30T14:54:03;21.20;74.90
48734;DHT22;34530;52.084;5.146;2022-10-30T14:56:45;21.20;75.00
48734;DHT22;34530;52.084;5.146;2022-10-30T15:01:52;21.20;74.90
48734;DHT22;34530;52.084;5.146;2022-10-30T15:07:42;21.20;74.70
48734;DHT22;34530;52.084;5.146;2022-10-30T15:10:31;21.20;74.70
48734;DHT22;34530;52.084;5.146;2022-10-30T15:15:26;21.20;74.80
48734;DHT22;34530;52.084;5.146;2022-10-30T15:17:55;21.20;74.70
48734;DHT22;34530;52.084;5.146;2022-10-30T15:20:28;21.20;74.60
48734;DHT22;34530;52.084;5.146;2022-10-30T15:23:34;21.20;74.60
48734;DHT22;34530;52.084;5.146;2022-10-30T15:25:55;21.30;74.60
48734;DHT22;34530;52.084;5.146;2022-10-30T15:28:25;21.20;74.50
48734;DHT22;34530;52.084;5.146;2022-10-30T15:31:07;21.20;74.50
48734;DHT22;34530;52.084;5.146;2022-10-30T15:33:44;21.30;74.40
48734;DHT22;34530;52.084;5.146;2022-10-30T15:36:17;21.30;74.50
48734;DHT22;34530;52.084;5.146;2022-10-30T15:38:42;21.30;74.30
48734;DHT22;34530;52.084;5.146;2022-10-30T15:41:08;21.30;74.30
48734;DHT22;34530;52.084;5.146;2022-10-30T15:43:39;21.30;74.30
48734;DHT22;34530;52.084;5.146;2022-10-30T15:46:09;21.30;74.20
48734;DHT22;34530;52.084;5.146;2022-10-30T15:48:37;21.30;74.20
48734;DHT22;34530;52.084;5.146;2022-10-30T15:51:05;21.30;74.20
48734;DHT22;34530;52.084;5.146;2022-10-30T15:53:53;21.30;74.20
48734;DHT22;34530;52.084;5.146;2022-10-30T15:56:42;21.30;74.00
48734;DHT22;34530;52.084;5.146;2022-10-30T15:59:34;21.30;74.00
48734;DHT22;34530;52.084;5.146;2022-10-30T16:02:00;21.30;73.80
48734;DHT22;34530;52.084;5.146;2022-10-30T16:04:35;21.20;73.80
48734;DHT22;34530;52.084;5.146;2022-10-30T16:07:15;21.30;73.60
48734;DHT22;34530;52.084;5.146;2022-10-30T16:09:54;21.30;73.50
48734;DHT22;34530;52.084;5.146;2022-10-30T16:12:26;21.30;73.30
48734;DHT22;34530;52.084;5.146;2022-10-30T16:14:54;21.30;73.20
48734;DHT22;34530;52.084;5.146;2022-10-30T16:17:21;21.30;73.10
48734;DHT22;34530;52.084;5.146;2022-10-30T16:19:49;21.30;73.00
48734;DHT22;34530;52.084;5.146;2022-10-30T16:22:27;21.30;72.90
48734;DHT22;34530;52.084;5.146;2022-10-30T16:24:54;21.30;72.80
48734;DHT22;34530;52.084;5.146;2022-10-30T16:27:22;21.30;72.80
48734;DHT22;34530;52.084;5.146;2022-10-30T16:29:54;21.30;72.80
48734;DHT22;34530;52.084;5.146;2022-10-30T16:32:24;21.30;72.70
48734;DHT22;34530;52.084;5.146;2022-10-30T16:34:54;21.30;73.40
48734;DHT22;34530;52.084;5.146;2022-10-30T16:37:26;21.30;72.50
48734;DHT22;34530;52.084;5.146;2022-10-30T16:39:53;21.30;72.40
48734;DHT22;34530;52.084;5.146;2022-10-30T16:42:24;21.30;72.40
48734;DHT22;34530;52.084;5.146;2022-10-30T16:44:51;21.30;72.30
48734;DHT22;34530;52.084;5.146;2022-10-30T16:47:27;21.30;72.40
48734;DHT22;34530;52.084;5.146;2022-10-30T16:49:55;21.30;72.50
48734;DHT22;34530;52.084;5.146;2022-10-30T16:52:26;21.30;72.50
48734;DHT22;34530;52.084;5.146;2022-10-30T16:55:01;21.30;72.50
48734;DHT22;34530;52.084;5.146;2022-10-30T16:57:31;21.30;72.50
48734;DHT22;34530;52.084;5.146;2022-10-30T16:59:59;21.30;72.50
48734;DHT22;34530;52.084;5.146;2022-10-30T17:02:28;21.30;73.20
48734;DHT22;34530;52.084;5.146;2022-10-30T17:07:25;21.30;72.50
48734;DHT22;34530;52.084;5.146;2022-10-30T17:09:54;21.30;72.60
48734;DHT22;34530;52.084;5.146;2022-10-30T17:12:25;21.30;72.70
48734;DHT22;34530;52.084;5.146;2022-10-30T17:17:38;21.30;72.80
48734;DHT22;34530;52.084;5.146;2022-10-30T17:20:10;21.30;72.90
48734;DHT22;34530;52.084;5.146;2022-10-30T17:22:36;21.30;72.90
48734;DHT22;34530;52.084;5.146;2022-10-30T17:25:15;21.30;73.00
48734;DHT22;34530;52.084;5.146;2022-10-30T17:27:49;21.40;72.90
48734;DHT22;34530;52.084;5.146;2022-10-30T17:35:46;21.40;72.90
48734;DHT22;34530;52.084;5.146;2022-10-30T17:38:12;21.40;73.10
48734;DHT22;34530;52.084;5.146;2022-10-30T17:40:38;21.40;73.00
48734;DHT22;34530;52.084;5.146;2022-10-30T17:43:03;21.40;73.90
48734;DHT22;34530;52.084;5.146;2022-10-30T17:45:29;21.40;73.00
48734;DHT22;34530;52.084;5.146;2022-10-30T17:47:54;21.40;73.00
48734;DHT22;34530;52.084;5.146;2022-10-30T17:50:20;21.40;73.10
48734;DHT22;34530;52.084;5.146;2022-10-30T17:52:46;21.40;73.00
48734;DHT22;34530;52.084;5.146;2022-10-30T17:55:25;21.40;73.00